Time;durP1;ratioP1;P1;durP2;ratioP2;P2;SDS_P1;SDS_P2;PMS_P1;PMS_P2;Temp;Humidity;BMP_temperature;BMP_pressure;BME280_temperature;BME280_humidity;BME280_pressure;Samples;Min_cycle;Max_cycle;Signal;HPM_P1;HPM_P2
2022/03/30 00:00:20;;;;;;;47.50;25.92;;;;;;;;;;4974308;28;100563;-73
2022/03/30 00:02:47;;;;;;;48.42;25.42;;;;;;;;;;4974289;28;100119;-72
2022/03/30 00:05:15;;;;;;;41.95;25.20;;;;;;;;;;4940467;28;100020;-72
2022/03/30 00:07:42;;;;;;;42.58;26.05;;;;;;;;;;4955387;28;100324;-72
2022/03/30 00:10:09;;;;;;;45.90;25.70;;;;;;;;;;4956922;28;100598;-72
2022/03/30 00:12:35;;;;;;;44.25;24.27;;;;;;;;;;4956344;28;100098;-72
2022/03/30 00:15:03;;;;;;;53.83;26.23;;;;;;;;;;4956836;28;100048;-73
2022/03/30 00:17:31;;;;;;;46.47;26.27;;;;;;;;;;4973985;28;100495;-72
2022/03/30 00:19:59;;;;;;;43.75;26.70;;;;;;;;;;4956845;28;100627;-72
2022/03/30 00:22:26;;;;;;;48.40;25.98;;;;;;;;;;4956075;28;100233;-72
2022/03/30 00:24:53;;;;;;;44.50;26.00;;;;;;;;;;4973927;28;100130;-72
2022/03/30 00:27:20;;;;;;;43.90;25.77;;;;;;;;;;4955428;28;100875;-72
2022/03/30 00:29:47;;;;;;;48.30;25.17;;;;;;;;;;4957099;28;100739;-72
2022/03/30 00:32:14;;;;;;;43.85;25.63;;;;;;;;;;4974389;28;99950;-72
2022/03/30 00:34:41;;;;;;;44.50;25.38;;;;;;;;;;4974078;28;100211;-72
2022/03/30 00:37:08;;;;;;;45.47;25.17;;;;;;;;;;4923337;28;100634;-72
2022/03/30 00:39:35;;;;;;;43.38;25.17;;;;;;;;;;4940273;28;100571;-72
2022/03/30 00:42:03;;;;;;;42.88;26.58;;;;;;;;;;4956923;28;100021;-72
2022/03/30 00:44:30;;;;;;;43.33;25.60;;;;;;;;;;4955783;28;100193;-72
2022/03/30 00:46:57;;;;;;;47.10;26.70;;;;;;;;;;4955275;28;100890;-72
2022/03/30 00:49:24;;;;;;;53.72;27.25;;;;;;;;;;4973737;28;100642;-72
2022/03/30 00:51:50;;;;;;;46.00;26.27;;;;;;;;;;4973429;28;99947;-72
2022/03/30 00:54:17;;;;;;;44.40;25.45;;;;;;;;;;4956654;28;100048;-72
2022/03/30 00:56:44;;;;;;;45.45;26.02;;;;;;;;;;4972764;28;100417;-72
2022/03/30 00:59:11;;;;;;;46.00;26.95;;;;;;;;;;4972960;28;100591;-72
2022/03/30 01:01:38;;;;;;;49.13;26.20;;;;;;;;;;4955538;28;100168;-72
2022/03/30 01:04:05;;;;;;;43.20;25.85;;;;;;;;;;4972022;28;100166;-72
2022/03/30 01:06:32;;;;;;;47.60;25.33;;;;;;;;;;4955468;28;103087;-72
2022/03/30 01:08:59;;;;;;;47.95;26.35;;;;;;;;;;4972762;28;100589;-72
2022/03/30 01:11:28;;;;;;;46.53;26.58;;;;;;;;;;4973624;28;100117;-72
2022/03/30 01:13:55;;;;;;;50.67;26.38;;;;;;;;;;4940495;28;100106;-72
2022/03/30 01:16:30;;;;;;;49.03;27.45;;;;;;;;;;4973094;28;100249;-72
2022/03/30 01:19:05;;;;;;;50.28;27.27;;;;;;;;;;4956288;28;100875;-73
2022/03/30 01:21:36;;;;;;;48.60;28.35;;;;;;;;;;4973001;28;99956;-73
2022/03/30 01:24:04;;;;;;;55.17;28.83;;;;;;;;;;4973118;28;100019;-73
2022/03/30 01:26:30;;;;;;;55.83;30.08;;;;;;;;;;4955071;28;100553;-72
2022/03/30 01:28:57;;;;;;;52.20;29.20;;;;;;;;;;4939026;28;100746;-73
2022/03/30 01:34:09;;;;;;;51.40;28.45;;;;;;;;;;4944418;28;100146;-73
2022/03/30 01:36:36;;;;;;;52.15;28.48;;;;;;;;;;4972521;28;100482;-72
2022/03/30 01:39:04;;;;;;;53.25;29.55;;;;;;;;;;4955375;28;100830;-72
2022/03/30 01:41:31;;;;;;;54.67;28.60;;;;;;;;;;4972134;28;100102;-72
2022/03/30 01:43:58;;;;;;;52.65;28.23;;;;;;;;;;4973652;28;99957;-72
2022/03/30 01:46:25;;;;;;;50.53;29.17;;;;;;;;;;4954377;28;100335;-73
2022/03/30 01:48:52;;;;;;;50.35;27.55;;;;;;;;;;4955027;28;101549;-72
2022/03/30 01:51:18;;;;;;;49.92;28.17;;;;;;;;;;4972535;28;100081;-72
2022/03/30 01:53:45;;;;;;;51.30;29.00;;;;;;;;;;4939354;28;100294;-73
2022/03/30 01:56:12;;;;;;;51.78;28.92;;;;;;;;;;4972113;28;100587;-74
2022/03/30 01:58:39;;;;;;;51.70;28.25;;;;;;;;;;4972161;28;100668;-73
2022/03/30 02:01:05;;;;;;;50.90;28.10;;;;;;;;;;4954748;28;100149;-72
2022/03/30 02:03:32;;;;;;;53.10;29.20;;;;;;;;;;4972168;28;100150;-72
2022/03/30 02:05:59;;;;;;;48.78;27.40;;;;;;;;;;4971138;28;100599;-72
2022/03/30 02:08:26;;;;;;;49.22;27.20;;;;;;;;;;4955166;28;100537;-73
2022/03/30 02:10:53;;;;;;;51.95;28.55;;;;;;;;;;4955411;28;100119;-73
2022/03/30 02:13:19;;;;;;;52.78;28.50;;;;;;;;;;4972654;28;100007;-73
2022/03/30 02:15:46;;;;;;;53.90;28.00;;;;;;;;;;4954133;28;100531;-73
2022/03/30 02:18:13;;;;;;;56.55;30.02;;;;;;;;;;4954672;28;101219;-72
2022/03/30 02:20:45;;;;;;;57.22;30.42;;;;;;;;;;4949641;28;100058;-72
2022/03/30 02:23:11;;;;;;;53.15;28.98;;;;;;;;;;4972562;28;100022;-72
2022/03/30 02:25:38;;;;;;;59.35;30.52;;;;;;;;;;4938495;28;100202;-72
2022/03/30 02:28:05;;;;;;;57.95;29.27;;;;;;;;;;4972254;28;101050;-72
2022/03/30 02:30:32;;;;;;;51.78;27.92;;;;;;;;;;4972429;28;99901;-72
2022/03/30 02:33:01;;;;;;;54.55;30.35;;;;;;;;;;4972816;28;100023;-72
2022/03/30 02:35:28;;;;;;;54.95;27.65;;;;;;;;;;4938587;28;100249;-72
2022/03/30 02:37:56;;;;;;;49.60;27.70;;;;;;;;;;4954683;28;101138;-72
2022/03/30 02:40:23;;;;;;;51.25;27.60;;;;;;;;;;4971818;28;100204;-72
2022/03/30 02:42:50;;;;;;;48.88;29.38;;;;;;;;;;4954876;28;99863;-72
2022/03/30 02:45:17;;;;;;;61.40;31.70;;;;;;;;;;4954842;28;100614;-72
2022/03/30 02:50:29;;;;;;;62.08;32.60;;;;;;;;;;4972479;28;100163;-72
2022/03/30 02:52:56;;;;;;;59.20;31.75;;;;;;;;;;4954600;28;100101;-73
2022/03/30 02:55:23;;;;;;;60.72;31.50;;;;;;;;;;4954308;28;103660;-72
2022/03/30 02:57:49;;;;;;;56.38;30.05;;;;;;;;;;4954653;28;100559;-73
2022/03/30 03:00:16;;;;;;;57.58;30.77;;;;;;;;;;4955055;28;100017;-73
2022/03/30 03:02:43;;;;;;;65.57;31.73;;;;;;;;;;4954731;28;100142;-73
2022/03/30 03:05:10;;;;;;;55.72;30.10;;;;;;;;;;4951147;28;100357;-73
2022/03/30 03:07:37;;;;;;;57.15;30.00;;;;;;;;;;4967278;28;101103;-73
2022/03/30 03:10:04;;;;;;;55.25;30.23;;;;;;;;;;4951086;28;100064;-73
2022/03/30 03:12:31;;;;;;;55.40;29.33;;;;;;;;;;4935220;28;100079;-73
2022/03/30 03:14:58;;;;;;;61.58;30.17;;;;;;;;;;4952313;28;100409;-73
2022/03/30 03:17:25;;;;;;;51.33;28.70;;;;;;;;;;4951383;28;100980;-72
2022/03/30 03:19:52;;;;;;;54.78;30.05;;;;;;;;;;4967310;28;99953;-73
2022/03/30 03:22:18;;;;;;;70.55;33.70;;;;;;;;;;4951793;28;100039;-73
2022/03/30 03:24:45;;;;;;;85.90;37.35;;;;;;;;;;4950387;28;101661;-73
2022/03/30 03:27:12;;;;;;;82.13;36.88;;;;;;;;;;4951887;28;100792;-73
2022/03/30 03:29:39;;;;;;;77.28;36.05;;;;;;;;;;4937054;28;100296;-73
2022/03/30 03:32:06;;;;;;;73.13;35.63;;;;;;;;;;4934903;28;100227;-72
2022/03/30 03:34:33;;;;;;;82.82;36.97;;;;;;;;;;4954082;28;100267;-73
2022/03/30 03:37:00;;;;;;;77.40;35.30;;;;;;;;;;4955124;28;100569;-72
2022/03/30 03:39:27;;;;;;;67.45;32.75;;;;;;;;;;4954682;28;100169;-73
2022/03/30 03:41:53;;;;;;;70.70;32.85;;;;;;;;;;4955652;28;99978;-72
2022/03/30 03:44:20;;;;;;;69.10;33.90;;;;;;;;;;4970214;28;100223;-74
2022/03/30 03:46:47;;;;;;;58.75;32.38;;;;;;;;;;4953768;28;100712;-72
2022/03/30 03:49:14;;;;;;;56.60;31.13;;;;;;;;;;4970777;28;100027;-72
2022/03/30 03:51:41;;;;;;;63.55;32.33;;;;;;;;;;4952701;28;100014;-73
2022/03/30 03:54:08;;;;;;;60.75;31.55;;;;;;;;;;4953471;28;101235;-73
2022/03/30 03:56:34;;;;;;;60.88;31.17;;;;;;;;;;4953983;28;100583;-72
2022/03/30 03:59:01;;;;;;;58.20;32.17;;;;;;;;;;4954743;28;100053;-72
2022/03/30 04:01:29;;;;;;;63.25;32.17;;;;;;;;;;4954015;28;100125;-72
2022/03/30 04:03:56;;;;;;;56.50;30.10;;;;;;;;;;4964532;28;100259;-72
2022/03/30 04:06:30;;;;;;;56.83;30.75;;;;;;;;;;4973914;28;100585;-72
2022/03/30 04:08:57;;;;;;;55.58;28.88;;;;;;;;;;4941030;28;100196;-72
2022/03/30 04:11:23;;;;;;;57.97;30.38;;;;;;;;;;4957784;28;100105;-72
2022/03/30 04:13:50;;;;;;;57.33;29.60;;;;;;;;;;4973760;28;100335;-72
2022/03/30 04:16:17;;;;;;;57.78;30.00;;;;;;;;;;4974167;28;100642;-72
2022/03/30 04:18:44;;;;;;;56.65;29.30;;;;;;;;;;4974503;28;99972;-72
2022/03/30 04:21:11;;;;;;;54.30;29.60;;;;;;;;;;4974291;28;99809;-72
2022/03/30 04:23:37;;;;;;;55.58;29.05;;;;;;;;;;4939768;28;100250;-72
2022/03/30 04:26:04;;;;;;;53.35;30.67;;;;;;;;;;4973394;28;100697;-72
2022/03/30 04:28:31;;;;;;;58.97;30.60;;;;;;;;;;4956912;28;100131;-72
2022/03/30 04:30:58;;;;;;;54.92;30.65;;;;;;;;;;4956133;28;100277;-72
2022/03/30 04:33:25;;;;;;;52.90;30.02;;;;;;;;;;4972118;28;100697;-73
2022/03/30 04:35:52;;;;;;;50.22;28.50;;;;;;;;;;4957188;28;100538;-73
2022/03/30 04:38:19;;;;;;;52.72;29.17;;;;;;;;;;4974159;28;100457;-73
2022/03/30 04:40:45;;;;;;;55.97;32.15;;;;;;;;;;4973118;28;100100;-73
2022/03/30 04:43:12;;;;;;;55.00;29.52;;;;;;;;;;4973175;28;100639;-74
2022/03/30 04:45:39;;;;;;;54.75;30.55;;;;;;;;;;4973175;28;100485;-74
2022/03/30 04:48:06;;;;;;;59.30;32.65;;;;;;;;;;4972965;28;99998;-73
2022/03/30 04:50:33;;;;;;;59.28;31.30;;;;;;;;;;4973569;28;100067;-73
2022/03/30 04:53:00;;;;;;;55.80;31.35;;;;;;;;;;4973224;28;100641;-74
2022/03/30 04:55:27;;;;;;;53.97;31.85;;;;;;;;;;4955783;28;101750;-73
2022/03/30 04:57:54;;;;;;;60.97;33.22;;;;;;;;;;4972507;28;100045;-73
2022/03/30 05:00:21;;;;;;;59.08;33.10;;;;;;;;;;4956256;28;100169;-73
2022/03/30 05:02:48;;;;;;;68.03;35.38;;;;;;;;;;4954589;28;100342;-72
2022/03/30 05:05:15;;;;;;;65.47;34.67;;;;;;;;;;4955571;28;100866;-72
2022/03/30 05:07:42;;;;;;;64.55;33.55;;;;;;;;;;4974826;28;100249;-73
2022/03/30 05:10:09;;;;;;;63.95;35.35;;;;;;;;;;4956127;28;100170;-72
2022/03/30 05:12:36;;;;;;;58.15;31.15;;;;;;;;;;4954765;28;100618;-73
2022/03/30 05:15:05;;;;;;;55.65;31.52;;;;;;;;;;4955325;28;101857;-73
2022/03/30 05:17:32;;;;;;;57.42;31.10;;;;;;;;;;4955217;28;100341;-72
2022/03/30 05:19:59;;;;;;;53.85;31.40;;;;;;;;;;4972246;28;100351;-73
2022/03/30 05:22:26;;;;;;;56.85;30.98;;;;;;;;;;4938970;28;103099;-72
2022/03/30 05:24:52;;;;;;;54.58;31.30;;;;;;;;;;4973120;28;101773;-72
2022/03/30 05:27:19;;;;;;;55.03;30.52;;;;;;;;;;4955249;28;100103;-73
2022/03/30 05:29:46;;;;;;;57.97;31.63;;;;;;;;;;4971267;28;100134;-73
2022/03/30 05:32:13;;;;;;;57.60;30.92;;;;;;;;;;4954193;28;100818;-73
2022/03/30 05:34:41;;;;;;;66.30;32.95;;;;;;;;;;4972333;28;101148;-71
2022/03/30 05:37:08;;;;;;;62.35;32.85;;;;;;;;;;4922746;28;100201;-73
2022/03/30 05:39:42;;;;;;;62.78;34.83;;;;;;;;;;4971631;28;100160;-73
2022/03/30 05:42:09;;;;;;;65.72;35.50;;;;;;;;;;4972453;28;100308;-72
2022/03/30 05:44:36;;;;;;;63.25;33.60;;;;;;;;;;4939011;28;101174;-73
2022/03/30 05:47:04;;;;;;;62.72;33.95;;;;;;;;;;4955814;28;100045;-73
2022/03/30 05:49:31;;;;;;;73.63;35.88;;;;;;;;;;4955594;28;100073;-73
2022/03/30 05:51:58;;;;;;;71.85;37.58;;;;;;;;;;4953761;28;101024;-73
2022/03/30 05:54:24;;;;;;;65.43;34.60;;;;;;;;;;4972466;28;100567;-72
2022/03/30 05:57:00;;;;;;;64.45;36.60;;;;;;;;;;4954909;28;100162;-72
2022/03/30 05:59:31;;;;;;;73.72;37.60;;;;;;;;;;4956268;28;100282;-72
2022/03/30 06:01:58;;;;;;;63.35;35.45;;;;;;;;;;4955949;28;100363;-71
2022/03/30 06:04:25;;;;;;;69.97;36.30;;;;;;;;;;4969477;28;101641;-71
2022/03/30 06:06:59;;;;;;;71.88;37.33;;;;;;;;;;4922106;28;100184;-74
2022/03/30 06:09:29;;;;;;;68.72;36.10;;;;;;;;;;4955186;28;100021;-73
2022/03/30 06:12:08;;;;;;;68.30;35.88;;;;;;;;;;4972418;28;100386;-73
2022/03/30 06:14:35;;;;;;;70.25;35.95;;;;;;;;;;4972626;28;101856;-73
2022/03/30 06:17:03;;;;;;;69.07;35.55;;;;;;;;;;4955123;28;100319;-73
2022/03/30 06:19:31;;;;;;;69.63;36.22;;;;;;;;;;4955723;28;100269;-74
2022/03/30 06:21:58;;;;;;;71.82;36.97;;;;;;;;;;4938543;28;100277;-73
2022/03/30 06:24:25;;;;;;;66.30;36.25;;;;;;;;;;4954589;28;101763;-73
2022/03/30 06:26:52;;;;;;;68.35;37.45;;;;;;;;;;4971955;28;100315;-73
2022/03/30 06:29:19;;;;;;;68.18;36.88;;;;;;;;;;4973547;28;100104;-72
2022/03/30 06:31:45;;;;;;;63.72;34.35;;;;;;;;;;4973478;28;100515;-72
2022/03/30 06:34:12;;;;;;;65.60;35.45;;;;;;;;;;4972178;28;100663;-72
2022/03/30 06:36:39;;;;;;;65.10;34.03;;;;;;;;;;4970962;28;100224;-73
2022/03/30 06:39:06;;;;;;;64.55;34.65;;;;;;;;;;4971671;28;100052;-73
2022/03/30 06:41:33;;;;;;;66.57;35.05;;;;;;;;;;4971823;28;101534;-73
2022/03/30 06:44:00;;;;;;;70.95;35.22;;;;;;;;;;4971827;28;101133;-73
2022/03/30 06:46:29;;;;;;;61.95;34.58;;;;;;;;;;4971197;28;100496;-73
2022/03/30 06:49:01;;;;;;;66.20;31.60;;;;;;;;;;4958080;28;100046;-73
2022/03/30 06:51:27;;;;;;;65.50;34.50;;;;;;;;;;4948488;28;101986;-73
2022/03/30 06:53:54;;;;;;;60.88;34.42;;;;;;;;;;4971350;28;100568;-74
2022/03/30 06:56:21;;;;;;;68.15;34.22;;;;;;;;;;4971416;28;100199;-73
2022/03/30 06:58:48;;;;;;;61.05;31.15;;;;;;;;;;4971562;28;100075;-73
2022/03/30 07:01:16;;;;;;;63.90;34.50;;;;;;;;;;4954386;28;100370;-73
2022/03/30 07:03:43;;;;;;;62.05;33.60;;;;;;;;;;4972858;28;100736;-73
2022/03/30 07:06:10;;;;;;;67.28;35.08;;;;;;;;;;4974397;28;101452;-74
2022/03/30 07:11:22;;;;;;;65.25;31.88;;;;;;;;;;4972954;28;100367;-74
2022/03/30 07:13:49;;;;;;;64.88;33.95;;;;;;;;;;4941708;28;100552;-72
2022/03/30 07:16:16;;;;;;;64.40;35.00;;;;;;;;;;4975200;28;100012;-72
2022/03/30 07:18:43;;;;;;;67.32;33.42;;;;;;;;;;4975142;28;100043;-72
2022/03/30 07:21:10;;;;;;;70.18;35.90;;;;;;;;;;4974975;28;100813;-72
2022/03/30 07:23:37;;;;;;;69.78;35.28;;;;;;;;;;4957206;28;100535;-72
2022/03/30 07:26:05;;;;;;;59.15;30.60;;;;;;;;;;4975027;28;100016;-72
2022/03/30 07:28:32;;;;;;;63.72;34.50;;;;;;;;;;4975732;28;99996;-72
2022/03/30 07:30:58;;;;;;;62.55;34.92;;;;;;;;;;4974252;28;100344;-72
2022/03/30 07:33:25;;;;;;;68.50;36.28;;;;;;;;;;4955359;28;100633;-72
2022/03/30 07:35:52;;;;;;;70.40;35.15;;;;;;;;;;4974710;28;99965;-73
2022/03/30 07:38:20;;;;;;;65.07;35.28;;;;;;;;;;4975155;28;99892;-72
2022/03/30 07:40:47;;;;;;;63.17;33.78;;;;;;;;;;4956867;28;103262;-72
2022/03/30 07:43:15;;;;;;;61.35;32.10;;;;;;;;;;4938726;28;100670;-72
2022/03/30 07:45:43;;;;;;;56.97;30.75;;;;;;;;;;4949350;28;100203;-72
2022/03/30 07:48:10;;;;;;;56.10;31.65;;;;;;;;;;4975122;28;100948;-73
2022/03/30 07:50:37;;;;;;;62.88;33.10;;;;;;;;;;4974144;28;100531;-71
2022/03/30 07:53:04;;;;;;;55.65;31.00;;;;;;;;;;4957426;28;100907;-71
2022/03/30 07:55:34;;;;;;;63.45;33.13;;;;;;;;;;4957725;28;100025;-71
2022/03/30 07:58:01;;;;;;;55.22;30.80;;;;;;;;;;4974681;28;101436;-72
2022/03/30 08:00:29;;;;;;;57.72;31.92;;;;;;;;;;4955544;28;100402;-72
2022/03/30 08:02:56;;;;;;;53.00;30.52;;;;;;;;;;4974186;28;100681;-72
2022/03/30 08:05:23;;;;;;;58.03;30.83;;;;;;;;;;4974314;28;101440;-72
2022/03/30 08:07:50;;;;;;;58.08;30.33;;;;;;;;;;4974384;28;100075;-72
2022/03/30 08:10:17;;;;;;;53.35;31.38;;;;;;;;;;4956821;28;100352;-72
2022/03/30 08:12:45;;;;;;;59.45;31.88;;;;;;;;;;4955635;28;101960;-72
2022/03/30 08:15:13;;;;;;;56.08;28.67;;;;;;;;;;4956465;28;100214;-73
2022/03/30 08:17:41;;;;;;;53.72;29.40;;;;;;;;;;4957450;28;100052;-70
2022/03/30 08:20:08;;;;;;;58.28;31.85;;;;;;;;;;4940248;28;100335;-73
2022/03/30 08:22:35;;;;;;;61.30;30.80;;;;;;;;;;4940221;28;101481;-71
2022/03/30 08:25:07;;;;;;;58.40;31.45;;;;;;;;;;4973816;28;100207;-72
2022/03/30 08:27:34;;;;;;;52.47;30.00;;;;;;;;;;4956264;28;99968;-71
2022/03/30 08:30:01;;;;;;;59.80;33.45;;;;;;;;;;4956165;28;100222;-72
2022/03/30 08:32:28;;;;;;;53.72;29.15;;;;;;;;;;4939437;28;100602;-72
2022/03/30 08:34:55;;;;;;;48.95;26.33;;;;;;;;;;4953561;28;100675;-71
2022/03/30 08:37:22;;;;;;;51.08;27.80;;;;;;;;;;4955229;28;100120;-71
2022/03/30 08:39:53;;;;;;;57.17;31.30;;;;;;;;;;4955494;28;100327;-71
2022/03/30 08:42:20;;;;;;;53.80;29.33;;;;;;;;;;4901012;28;101797;-72
2022/03/30 08:44:47;;;;;;;49.90;27.65;;;;;;;;;;4941253;28;100385;-72
2022/03/30 08:47:14;;;;;;;49.42;28.20;;;;;;;;;;4937506;28;100210;-72
2022/03/30 08:49:42;;;;;;;50.15;27.67;;;;;;;;;;4954801;28;100264;-72
2022/03/30 08:52:10;;;;;;;50.33;29.25;;;;;;;;;;4939047;28;100572;-72
2022/03/30 08:54:41;;;;;;;49.58;28.60;;;;;;;;;;4970549;28;100203;-72
2022/03/30 08:57:08;;;;;;;51.97;28.85;;;;;;;;;;4954796;28;100569;-71
2022/03/30 08:59:35;;;;;;;51.28;29.75;;;;;;;;;;4954572;28;100714;-72
2022/03/30 09:02:02;;;;;;;49.20;28.55;;;;;;;;;;4955197;28;102863;-73
2022/03/30 09:04:30;;;;;;;49.80;27.75;;;;;;;;;;4954536;28;100220;-72
2022/03/30 09:06:58;;;;;;;51.45;28.13;;;;;;;;;;4955680;28;100264;-72
2022/03/30 09:09:32;;;;;;;51.08;28.73;;;;;;;;;;4938458;28;100226;-72
2022/03/30 09:12:00;;;;;;;50.90;30.23;;;;;;;;;;4938606;28;100564;-72
2022/03/30 09:14:31;;;;;;;52.30;28.77;;;;;;;;;;4972237;28;100004;-72
2022/03/30 09:17:02;;;;;;;50.78;27.83;;;;;;;;;;4953627;28;100128;-73
2022/03/30 09:19:30;;;;;;;46.35;26.70;;;;;;;;;;4968079;28;100244;-72
2022/03/30 09:21:58;;;;;;;53.22;26.88;;;;;;;;;;4970354;28;100538;-73
2022/03/30 09:24:27;;;;;;;51.67;27.80;;;;;;;;;;4937324;28;100420;-73
2022/03/30 09:26:54;;;;;;;43.17;22.40;;;;;;;;;;4953899;28;100306;-72
2022/03/30 09:29:26;;;;;;;54.28;28.50;;;;;;;;;;4954351;28;100850;-72
2022/03/30 09:32:13;;;;;;;48.58;27.50;;;;;;;;;;4927725;28;100633;-72
2022/03/30 09:34:50;;;;;;;48.55;26.70;;;;;;;;;;4937615;28;100527;-72
2022/03/30 09:37:17;;;;;;;47.63;25.40;;;;;;;;;;4949172;28;100151;-72
2022/03/30 09:39:45;;;;;;;49.65;27.48;;;;;;;;;;4936569;28;100650;-72
2022/03/30 09:42:14;;;;;;;45.83;27.33;;;;;;;;;;4971525;28;100656;-72
2022/03/30 09:44:48;;;;;;;47.03;25.35;;;;;;;;;;4972126;28;100178;-72
2022/03/30 09:47:15;;;;;;;42.63;22.95;;;;;;;;;;4939279;28;100111;-72
2022/03/30 09:49:44;;;;;;;40.10;21.75;;;;;;;;;;4971181;28;100659;-72
2022/03/30 09:52:16;;;;;;;40.53;22.05;;;;;;;;;;4937685;28;100712;-73
2022/03/30 09:54:51;;;;;;;38.60;21.55;;;;;;;;;;4954045;28;100507;-72
2022/03/30 09:57:19;;;;;;;44.63;22.15;;;;;;;;;;4922371;28;100085;-72
2022/03/30 10:00:15;;;;;;;42.75;24.92;;;;;;;;;;4971873;28;100452;-73
2022/03/30 10:02:43;;;;;;;39.63;22.48;;;;;;;;;;4970723;28;100335;-71
2022/03/30 10:05:12;;;;;;;41.83;23.50;;;;;;;;;;4954130;28;100311;-72
2022/03/30 10:07:40;;;;;;;41.78;24.83;;;;;;;;;;4953747;28;100188;-73
2022/03/30 10:10:08;;;;;;;46.22;26.25;;;;;;;;;;4953710;28;100964;-72
2022/03/30 10:12:36;;;;;;;46.67;26.73;;;;;;;;;;4938381;28;100662;-72
2022/03/30 10:15:05;;;;;;;47.50;27.10;;;;;;;;;;4970277;28;100564;-72
2022/03/30 10:17:32;;;;;;;47.72;27.40;;;;;;;;;;4937299;28;100106;-72
2022/03/30 10:20:01;;;;;;;42.22;24.33;;;;;;;;;;4952466;28;100343;-72
2022/03/30 10:22:47;;;;;;;47.00;25.67;;;;;;;;;;4953523;28;101793;-72
2022/03/30 10:25:24;;;;;;;43.97;24.83;;;;;;;;;;4955254;28;100168;-72
2022/03/30 10:27:55;;;;;;;41.92;24.30;;;;;;;;;;4953160;28;101463;-74
2022/03/30 10:30:29;;;;;;;43.78;24.17;;;;;;;;;;4952510;28;100465;-73
2022/03/30 10:32:58;;;;;;;42.63;24.75;;;;;;;;;;4937466;28;102068;-72
2022/03/30 10:35:42;;;;;;;45.33;25.75;;;;;;;;;;4969411;28;100483;-73
2022/03/30 10:38:09;;;;;;;49.95;24.92;;;;;;;;;;4954349;28;100236;-73
2022/03/30 10:40:37;;;;;;;44.53;24.70;;;;;;;;;;4953312;28;100289;-73
2022/03/30 10:43:10;;;;;;;46.90;26.23;;;;;;;;;;4953744;28;100629;-71
2022/03/30 10:45:42;;;;;;;43.97;25.58;;;;;;;;;;4953600;28;100184;-73
2022/03/30 10:48:27;;;;;;;48.38;26.08;;;;;;;;;;4954096;28;100527;-72
2022/03/30 10:51:14;;;;;;;49.15;24.83;;;;;;;;;;4970957;28;100916;-72
2022/03/30 10:53:42;;;;;;;41.85;24.67;;;;;;;;;;4952814;28;100674;-72
2022/03/30 10:56:09;;;;;;;47.80;26.42;;;;;;;;;;4969764;28;100952;-72
2022/03/30 10:58:36;;;;;;;46.97;24.63;;;;;;;;;;4971345;28;100106;-73
2022/03/30 11:01:14;;;;;;;46.10;25.55;;;;;;;;;;4969229;28;100490;-72
2022/03/30 11:04:05;;;;;;;42.95;24.92;;;;;;;;;;4936586;28;100927;-72
2022/03/30 11:06:34;;;;;;;43.58;26.77;;;;;;;;;;4954349;28;100733;-72
2022/03/30 11:09:08;;;;;;;42.17;23.70;;;;;;;;;;4935623;28;100784;-71
2022/03/30 11:11:45;;;;;;;46.05;25.95;;;;;;;;;;4953935;28;100310;-73
2022/03/30 11:14:36;;;;;;;43.13;24.90;;;;;;;;;;4938016;28;100765;-72
2022/03/30 11:17:07;;;;;;;40.08;22.75;;;;;;;;;;4952449;28;100586;-73
2022/03/30 11:19:46;;;;;;;39.33;22.73;;;;;;;;;;4952547;28;100065;-72
2022/03/30 11:22:13;;;;;;;45.17;24.77;;;;;;;;;;4969728;28;100395;-72
2022/03/30 11:24:43;;;;;;;42.85;24.63;;;;;;;;;;4970147;28;101853;-72
2022/03/30 11:27:10;;;;;;;45.47;24.92;;;;;;;;;;4953785;28;100440;-72
2022/03/30 11:29:54;;;;;;;47.30;24.05;;;;;;;;;;4953257;28;100194;-72
2022/03/30 11:32:24;;;;;;;44.38;25.80;;;;;;;;;;4970356;28;100430;-71
2022/03/30 11:35:00;;;;;;;43.60;22.75;;;;;;;;;;4969251;28;101805;-72
2022/03/30 11:37:28;;;;;;;40.38;24.63;;;;;;;;;;4953338;28;100142;-72
2022/03/30 11:40:03;;;;;;;44.17;25.08;;;;;;;;;;4953509;28;101289;-72
2022/03/30 11:42:40;;;;;;;43.70;25.02;;;;;;;;;;4952231;28;100499;-71
2022/03/30 11:45:21;;;;;;;42.45;23.95;;;;;;;;;;4968816;28;100736;-71
2022/03/30 11:48:11;;;;;;;40.78;23.83;;;;;;;;;;4951136;28;100341;-73
2022/03/30 11:50:47;;;;;;;45.42;25.20;;;;;;;;;;4957416;28;100309;-73
2022/03/30 11:53:18;;;;;;;43.38;25.23;;;;;;;;;;4971869;28;100864;-73
2022/03/30 11:55:55;;;;;;;44.85;24.92;;;;;;;;;;4973289;28;100728;-73
2022/03/30 11:58:37;;;;;;;44.90;22.95;;;;;;;;;;4973909;28;100094;-72
2022/03/30 12:01:12;;;;;;;43.30;24.45;;;;;;;;;;4972773;28;100385;-73
2022/03/30 12:03:41;;;;;;;40.85;24.02;;;;;;;;;;4971581;28;101000;-71
2022/03/30 12:06:12;;;;;;;38.63;23.13;;;;;;;;;;4923899;28;100686;-71
2022/03/30 12:08:44;;;;;;;42.70;24.48;;;;;;;;;;4973640;28;100065;-71
2022/03/30 12:11:13;;;;;;;42.67;25.33;;;;;;;;;;4924605;28;100214;-72
2022/03/30 12:13:52;;;;;;;39.85;23.17;;;;;;;;;;4954663;28;100749;-71
2022/03/30 12:16:20;;;;;;;39.03;23.20;;;;;;;;;;4956055;28;100526;-71
2022/03/30 12:19:06;;;;;;;38.65;24.65;;;;;;;;;;4923340;28;100086;-72
2022/03/30 12:21:38;;;;;;;45.10;25.00;;;;;;;;;;4954898;28;100192;-71
2022/03/30 12:24:16;;;;;;;40.60;24.08;;;;;;;;;;4939625;28;103277;-71
2022/03/30 12:26:52;;;;;;;43.35;24.50;;;;;;;;;;4939600;28;101226;-72
2022/03/30 12:29:21;;;;;;;42.08;23.40;;;;;;;;;;4955815;28;100083;-72
2022/03/30 12:31:59;;;;;;;48.28;24.83;;;;;;;;;;4973567;28;101717;-72
2022/03/30 12:34:30;;;;;;;36.60;23.13;;;;;;;;;;4972669;28;100748;-72
2022/03/30 12:37:09;;;;;;;37.88;23.58;;;;;;;;;;4943200;28;101465;-72
2022/03/30 12:39:57;;;;;;;46.90;25.65;;;;;;;;;;4972558;28;100183;-71
2022/03/30 12:42:30;;;;;;;39.92;22.42;;;;;;;;;;4955783;28;100125;-72
2022/03/30 12:45:01;;;;;;;39.67;22.70;;;;;;;;;;4922917;28;101004;-72
2022/03/30 12:47:31;;;;;;;40.92;21.92;;;;;;;;;;4954814;28;101785;-72
2022/03/30 12:50:10;;;;;;;38.10;22.80;;;;;;;;;;4957435;28;100158;-72
2022/03/30 12:52:42;;;;;;;36.15;22.33;;;;;;;;;;4955826;28;100248;-71
2022/03/30 12:55:27;;;;;;;38.17;22.52;;;;;;;;;;4953786;28;100356;-71
2022/03/30 12:57:56;;;;;;;40.22;22.48;;;;;;;;;;4973113;28;100628;-71
2022/03/30 13:00:26;;;;;;;34.80;21.80;;;;;;;;;;4970404;28;100322;-71
2022/03/30 13:03:07;;;;;;;38.60;21.05;;;;;;;;;;4938509;28;100439;-72
2022/03/30 13:05:37;;;;;;;36.75;21.88;;;;;;;;;;4971820;28;105104;-71
2022/03/30 13:08:20;;;;;;;35.55;20.92;;;;;;;;;;4953682;28;103431;-72
2022/03/30 13:10:52;;;;;;;37.40;20.15;;;;;;;;;;4938937;28;100099;-72
2022/03/30 13:13:21;;;;;;;36.92;21.60;;;;;;;;;;4937835;28;100233;-73
2022/03/30 13:15:48;;;;;;;38.47;21.55;;;;;;;;;;4937565;28;100377;-72
2022/03/30 13:18:18;;;;;;;37.30;21.33;;;;;;;;;;4970581;28;101245;-71
2022/03/30 13:20:59;;;;;;;38.20;20.50;;;;;;;;;;4955445;28;100161;-72
2022/03/30 13:23:51;;;;;;;36.25;20.95;;;;;;;;;;4955411;28;100137;-72
2022/03/30 13:26:36;;;;;;;35.65;21.80;;;;;;;;;;4956941;28;101214;-72
2022/03/30 13:29:07;;;;;;;37.70;21.88;;;;;;;;;;4938211;28;100728;-72
2022/03/30 13:31:43;;;;;;;39.58;22.17;;;;;;;;;;4954571;28;100579;-72
2022/03/30 13:34:10;;;;;;;36.70;21.77;;;;;;;;;;4953711;28;100217;-72
2022/03/30 13:36:38;;;;;;;36.95;21.65;;;;;;;;;;4921882;28;101403;-71
2022/03/30 13:39:06;;;;;;;32.03;19.00;;;;;;;;;;4971508;28;101739;-73
2022/03/30 13:41:33;;;;;;;36.35;20.50;;;;;;;;;;4954806;28;100446;-72
2022/03/30 13:44:00;;;;;;;40.25;21.25;;;;;;;;;;4971860;28;100496;-72
2022/03/30 13:46:27;;;;;;;37.08;20.73;;;;;;;;;;4938140;28;100571;-72
2022/03/30 13:48:54;;;;;;;38.40;21.67;;;;;;;;;;4970664;28;100663;-72
2022/03/30 13:51:21;;;;;;;38.08;21.83;;;;;;;;;;4954373;28;100122;-72
2022/03/30 13:53:49;;;;;;;41.05;22.45;;;;;;;;;;4971948;28;100095;-72
2022/03/30 13:56:17;;;;;;;40.20;22.58;;;;;;;;;;4953989;28;100337;-72
2022/03/30 13:58:52;;;;;;;39.10;22.70;;;;;;;;;;4954673;28;100918;-72
2022/03/30 14:01:24;;;;;;;40.38;22.60;;;;;;;;;;4971588;28;100139;-72
2022/03/30 14:03:51;;;;;;;36.42;22.05;;;;;;;;;;4954530;28;100158;-72
2022/03/30 14:06:18;;;;;;;42.35;24.30;;;;;;;;;;4971168;28;100322;-73
2022/03/30 14:08:45;;;;;;;37.97;21.73;;;;;;;;;;4954321;28;100562;-72
2022/03/30 14:11:12;;;;;;;40.75;22.20;;;;;;;;;;4937317;28;100939;-72
2022/03/30 14:13:40;;;;;;;36.72;22.45;;;;;;;;;;4972081;28;100232;-72
2022/03/30 14:16:07;;;;;;;37.05;22.23;;;;;;;;;;4937756;28;100518;-72
2022/03/30 14:18:34;;;;;;;38.90;22.55;;;;;;;;;;4954237;28;100634;-71
2022/03/30 14:21:01;;;;;;;42.10;24.00;;;;;;;;;;4953707;28;100327;-71
2022/03/30 14:23:28;;;;;;;40.25;23.83;;;;;;;;;;4953926;28;100319;-71
2022/03/30 14:25:55;;;;;;;39.03;22.23;;;;;;;;;;4937114;28;100430;-72